Time;durP1;ratioP1;P1;durP2;ratioP2;P2;SDS_P1;SDS_P2;PMS_P1;PMS_P2;Temp;Humidity;BMP_temperature;BMP_pressure;BME280_temperature;BME280_humidity;BME280_pressure;Samples;Min_cycle;Max_cycle;Signal;HPM_P1;HPM_P2
2023/08/13 00:06:10;;;;;;;8.85;3.58;;;30.40;30.60;;;;;;20994324;28;20044;-55
2023/08/13 00:16:11;;;;;;;9.93;3.50;;;30.20;31.00;;;;;;20994082;28;20513;-57
2023/08/13 00:26:11;;;;;;;5.38;2.67;;;30.10;31.10;;;;;;20993951;28;20047;-57
2023/08/13 00:36:12;;;;;;;7.00;2.55;;;29.90;31.10;;;;;;20993920;28;20403;-57
2023/08/13 00:46:13;;;;;;;6.90;3.45;;;29.80;31.20;;;;;;20994466;28;20432;-56
2023/08/13 00:56:15;;;;;;;7.28;2.88;;;29.80;31.30;;;;;;21003252;28;20040;-56
2023/08/13 01:06:44;;;;;;;6.68;3.55;;;29.80;31.50;;;;;;21007259;28;20045;-56
2023/08/13 01:16:46;;;;;;;11.57;5.03;;;29.90;31.40;;;;;;21006265;28;20040;-56
2023/08/13 01:27:13;;;;;;;7.53;2.60;;;29.80;31.90;;;;;;21006850;28;20067;-57
2023/08/13 01:37:14;;;;;;;7.50;3.05;;;29.70;32.40;;;;;;21005033;28;20041;-56
2023/08/13 01:47:15;;;;;;;6.72;3.15;;;29.50;32.80;;;;;;21005259;28;20067;-57
2023/08/13 01:57:16;;;;;;;8.07;3.33;;;29.50;33.10;;;;;;21004347;28;20044;-56
2023/08/13 02:07:17;;;;;;;7.10;4.18;;;29.10;33.30;;;;;;21003161;28;20049;-56
2023/08/13 02:17:17;;;;;;;9.02;3.20;;;29.00;33.00;;;;;;21002907;28;20044;-56
2023/08/13 02:27:18;;;;;;;6.20;2.63;;;28.90;33.40;;;;;;21001824;28;20057;-56
2023/08/13 02:37:19;;;;;;;5.90;2.33;;;28.70;34.20;;;;;;21001380;28;20048;-56
2023/08/13 02:47:20;;;;;;;9.35;2.50;;;28.60;34.60;;;;;;21000704;28;20106;-57
2023/08/13 02:57:20;;;;;;;5.63;1.95;;;28.50;34.40;;;;;;20999878;28;20036;-56
2023/08/13 03:07:21;;;;;;;5.05;2.30;;;28.30;34.50;;;;;;20998923;28;20123;-56
2023/08/13 03:17:22;;;;;;;8.18;2.60;;;28.20;34.40;;;;;;20997184;28;20040;-57
2023/08/13 03:27:23;;;;;;;7.60;2.38;;;28.10;34.70;;;;;;20997247;28;20053;-57
2023/08/13 03:37:23;;;;;;;;;;;27.90;34.80;;;;;;20998035;28;20087;-56
2023/08/13 03:47:24;;;;;;;7.93;2.43;;;27.60;35.10;;;;;;20997083;28;19960;-56
2023/08/13 03:57:25;;;;;;;6.25;2.42;;;27.40;35.60;;;;;;20995329;28;20044;-56
2023/08/13 04:07:25;;;;;;;3.78;2.00;;;27.40;35.80;;;;;;20996137;28;20196;-56
2023/08/13 04:17:26;;;;;;;10.30;2.07;;;27.30;35.80;;;;;;20994481;28;20051;-56
2023/08/13 04:27:27;;;;;;;10.83;2.13;;;27.40;33.80;;;;;;21000077;28;20349;-56
2023/08/13 04:37:28;;;;;;;7.65;2.35;;;27.40;32.50;;;;;;21011564;28;20055;-56
2023/08/13 04:47:29;;;;;;;6.37;1.97;;;27.30;32.60;;;;;;21010428;28;20053;-57
2023/08/13 04:57:29;;;;;;;5.00;1.67;;;27.20;33.00;;;;;;21009751;28;20060;-56
2023/08/13 05:07:30;;;;;;;7.10;2.10;;;27.10;33.30;;;;;;21008768;28;20615;-57
2023/08/13 05:17:34;;;;;;;4.90;2.50;;;27.10;34.50;;;;;;21008211;28;20052;-56
2023/08/13 05:27:35;;;;;;;8.27;2.13;;;27.10;35.30;;;;;;21006693;28;20055;-56
2023/08/13 05:37:35;;;;;;;7.90;2.60;;;27.10;35.90;;;;;;21005458;28;20056;-57
2023/08/13 05:47:36;;;;;;;7.60;2.27;;;27.10;37.10;;;;;;21006005;28;20048;-57
2023/08/13 05:57:37;;;;;;;6.77;2.87;;;27.10;38.10;;;;;;21004678;28;20052;-57
2023/08/13 06:07:38;;;;;;;8.07;3.87;;;27.10;38.40;;;;;;21004096;28;20040;-57
2023/08/13 06:17:42;;;;;;;12.00;3.37;;;27.00;38.20;;;;;;21003427;28;20051;-56
2023/08/13 06:27:42;;;;;;;11.27;3.65;;;27.20;43.30;;;;;;21002078;28;20090;-56
2023/08/13 06:37:43;;;;;;;8.77;4.23;;;27.20;48.20;;;;;;21001681;28;20040;-57
2023/08/13 06:47:44;;;;;;;11.67;4.47;;;27.10;50.50;;;;;;21000261;28;20127;-55
2023/08/13 06:57:46;;;;;;;9.67;4.03;;;27.50;51.10;;;;;;20999607;28;20371;-56
2023/08/13 07:07:49;;;;;;;12.27;5.22;;;27.60;51.70;;;;;;20998889;28;20390;-56
2023/08/13 07:17:49;;;;;;;12.15;4.65;;;27.60;51.80;;;;;;20997930;28;20052;-56
2023/08/13 07:27:50;;;;;;;;;;;28.10;51.10;;;;;;20996728;28;20092;-57
2023/08/13 07:37:51;;;;;;;11.20;5.03;;;28.40;50.40;;;;;;20996809;28;19971;-57
2023/08/13 07:47:51;;;;;;;12.25;4.63;;;28.70;50.10;;;;;;20996353;28;20036;-57
2023/08/13 07:57:52;;;;;;;7.43;4.05;;;29.20;49.00;;;;;;20994591;28;20045;-56
2023/08/13 08:07:53;;;;;;;11.13;5.63;;;29.40;48.00;;;;;;20993812;28;20083;-59
2023/08/13 08:17:54;;;;;;;8.07;4.88;;;29.30;48.20;;;;;;20996103;28;20087;-57
2023/08/13 08:27:54;;;;;;;11.77;4.60;;;29.80;47.30;;;;;;20993744;28;20056;-56
2023/08/13 08:37:55;;;;;;;11.32;5.80;;;30.10;46.50;;;;;;20992318;28;20059;-57
2023/08/13 08:47:57;;;;;;;10.52;4.45;;;30.20;45.90;;;;;;20992217;28;20044;-57
2023/08/13 08:57:58;;;;;;;8.70;4.40;;;30.30;45.70;;;;;;20992722;28;20543;-57
2023/08/13 09:07:59;;;;;;;9.73;4.97;;;30.30;45.20;;;;;;20992185;28;20041;-56
2023/08/13 09:18:00;;;;;;;7.53;3.72;;;30.50;44.80;;;;;;21001539;28;20124;-56
2023/08/13 09:28:01;;;;;;;6.78;3.65;;;30.60;43.60;;;;;;21005653;28;20080;-57
2023/08/13 09:38:02;;;;;;;9.77;3.72;;;30.90;43.40;;;;;;21004739;28;20041;-60
2023/08/13 09:48:06;;;;;;;13.30;6.38;;;31.00;41.60;;;;;;21004415;28;20419;-60
2023/08/13 09:58:08;;;;;;;8.88;4.07;;;31.10;42.20;;;;;;21004019;28;20500;-63
2023/08/13 10:08:11;;;;;;;8.63;2.88;;;31.30;41.60;;;;;;21002784;28;20167;-57
2023/08/13 10:18:11;;;;;;;10.18;3.72;;;31.40;40.80;;;;;;21002509;28;20110;-57
2023/08/13 10:28:33;;;;;;;13.43;4.40;;;31.40;40.50;;;;;;21000686;28;20129;-57
2023/08/13 10:38:34;;;;;;;6.40;3.15;;;31.60;40.10;;;;;;20999706;28;20048;-57
2023/08/13 10:48:35;;;;;;;5.70;2.47;;;31.60;39.30;;;;;;20998980;28;20075;-57
2023/08/13 10:58:36;;;;;;;8.43;2.97;;;32.20;37.50;;;;;;20995795;28;20502;-57
2023/08/13 11:08:42;;;;;;;6.30;3.42;;;32.30;37.50;;;;;;20988453;28;20044;-58
2023/08/13 11:18:44;;;;;;;5.60;2.60;;;32.60;37.40;;;;;;20997003;28;20053;-57
2023/08/13 11:28:44;;;;;;;7.53;2.72;;;32.60;36.30;;;;;;20996594;28;20063;-56
2023/08/13 11:38:45;;;;;;;7.68;3.00;;;32.90;34.90;;;;;;20995813;28;20044;-57
2023/08/13 11:48:46;;;;;;;7.82;3.10;;;33.30;34.20;;;;;;20996497;28;20051;-58
2023/08/13 11:58:48;;;;;;;5.75;2.95;;;33.50;31.40;;;;;;20996078;28;20468;-58
2023/08/13 12:08:51;;;;;;;14.55;8.13;;;33.80;29.90;;;;;;20994449;28;20047;-58
2023/08/13 12:18:52;;;;;;;7.13;2.95;;;34.10;30.10;;;;;;20995116;28;20040;-58
2023/08/13 12:28:53;;;;;;;4.72;2.25;;;34.30;28.80;;;;;;20993508;28;20091;-57
2023/08/13 12:38:54;;;;;;;9.60;3.85;;;34.80;25.40;;;;;;20993367;28;20048;-58
2023/08/13 12:48:55;;;;;;;5.00;2.50;;;34.90;26.20;;;;;;20999711;28;20066;-58
2023/08/13 12:58:55;;;;;;;5.38;2.30;;;35.40;24.70;;;;;;21008122;28;20044;-58
2023/08/13 13:08:57;;;;;;;6.70;1.75;;;35.40;24.90;;;;;;21008719;28;20500;-58
2023/08/13 13:18:57;;;;;;;7.13;2.40;;;35.60;25.10;;;;;;21007787;28;20124;-58
2023/08/13 13:28:58;;;;;;;7.03;2.15;;;35.80;24.60;;;;;;21006447;28;20084;-57
2023/08/13 13:38:59;;;;;;;5.28;2.13;;;35.80;25.10;;;;;;21006062;28;20045;-58
2023/08/13 13:49:00;;;;;;;7.47;2.45;;;36.10;24.50;;;;;;21004781;28;20119;-58
2023/08/13 13:59:00;;;;;;;4.40;1.80;;;35.80;24.60;;;;;;21002355;28;20080;-56
2023/08/13 14:09:01;;;;;;;4.32;1.75;;;36.10;22.80;;;;;;21004023;28;20497;-58
2023/08/13 14:19:02;;;;;;;5.40;1.35;;;36.50;21.50;;;;;;21003049;28;20398;-57
2023/08/13 14:29:03;;;;;;;3.60;1.30;;;36.50;22.30;;;;;;21001590;28;20076;-57
2023/08/13 14:39:04;;;;;;;5.03;1.55;;;36.90;21.80;;;;;;21001427;28;20080;-57
2023/08/13 14:49:04;;;;;;;3.88;1.38;;;37.10;22.00;;;;;;21000394;28;20040;-57
2023/08/13 14:59:05;;;;;;;2.85;1.20;;;37.10;22.30;;;;;;20999769;28;20123;-58
2023/08/13 15:09:06;;;;;;;3.05;1.05;;;36.90;22.20;;;;;;20997032;28;20036;-58
2023/08/13 15:19:07;;;;;;;2.33;1.20;;;36.90;21.20;;;;;;20997793;28;20478;-59
2023/08/13 15:29:07;;;;;;;3.42;1.33;;;37.10;21.60;;;;;;20997288;28;20060;-58
2023/08/13 15:39:09;;;;;;;2.67;1.27;;;37.00;21.40;;;;;;20996763;28;20044;-58
2023/08/13 15:49:09;;;;;;;6.25;2.35;;;37.00;21.70;;;;;;20995952;28;20482;-59
2023/08/13 15:59:10;;;;;;;4.10;1.02;;;37.00;22.00;;;;;;20996004;28;20067;-57
2023/08/13 16:09:11;;;;;;;5.07;0.93;;;37.00;22.20;;;;;;20995671;28;20125;-59
2023/08/13 16:19:12;;;;;;;2.13;0.90;;;37.00;22.90;;;;;;20995337;28;20119;-58
2023/08/13 16:29:13;;;;;;;3.67;1.05;;;36.60;23.40;;;;;;21008381;28;20091;-58
2023/08/13 16:39:14;;;;;;;2.53;1.60;;;36.60;24.00;;;;;;21009366;28;20047;-59
2023/08/13 16:49:14;;;;;;;1.75;1.27;;;36.50;23.90;;;;;;21010185;28;20405;-58
2023/08/13 16:59:15;;;;;;;3.13;1.20;;;36.30;23.20;;;;;;21009061;28;20044;-58
2023/08/13 17:09:16;;;;;;;3.13;1.23;;;36.30;21.20;;;;;;21008643;28;20083;-57
2023/08/13 17:19:16;;;;;;;1.63;1.00;;;36.10;19.60;;;;;;21008509;28;20080;-57
2023/08/13 17:29:17;;;;;;;3.75;1.45;;;36.10;18.50;;;;;;21006910;28;20409;-57
2023/08/13 17:39:18;;;;;;;5.25;1.20;;;35.90;17.10;;;;;;21005269;28;20052;-58
2023/08/13 17:49:19;;;;;;;2.97;1.48;;;35.70;16.30;;;;;;21005739;28;20079;-57
2023/08/13 17:59:20;;;;;;;3.63;1.33;;;35.50;15.30;;;;;;21003834;28;20120;-59
2023/08/13 18:09:20;;;;;;;2.80;1.58;;;35.40;15.30;;;;;;21004055;28;20052;-58
2023/08/13 18:19:21;;;;;;;1.77;1.10;;;35.30;15.50;;;;;;21002998;28;20123;-57
2023/08/13 18:29:22;;;;;;;3.10;1.77;;;35.10;16.50;;;;;;21002897;28;20083;-57
2023/08/13 18:39:23;;;;;;;2.92;1.65;;;34.80;17.40;;;;;;21001429;28;20129;-57
2023/08/13 18:49:24;;;;;;;4.07;1.67;;;34.60;18.10;;;;;;20999192;28;20124;-57
2023/08/13 18:59:24;;;;;;;5.13;2.00;;;34.30;18.40;;;;;;20999342;28;20132;-57
2023/08/13 19:09:25;;;;;;;2.58;1.60;;;34.10;19.50;;;;;;20999364;28;20040;-57
2023/08/13 19:19:26;;;;;;;5.55;2.15;;;33.80;21.00;;;;;;20998227;28;20044;-57
2023/08/13 19:29:26;;;;;;;3.80;2.10;;;33.60;21.70;;;;;;20996591;28;20057;-58
2023/08/13 19:39:28;;;;;;;5.95;2.40;;;33.40;22.20;;;;;;20996417;28;20064;-58
2023/08/13 19:49:29;;;;;;;4.70;2.50;;;33.20;22.30;;;;;;20996141;28;20049;-57
2023/08/13 19:59:30;;;;;;;3.58;2.30;;;32.90;22.80;;;;;;20994740;28;20048;-58
2023/08/13 20:09:31;;;;;;;4.10;2.60;;;32.90;22.80;;;;;;20995002;28;20044;-57
2023/08/13 20:19:31;;;;;;;5.78;3.40;;;32.70;22.50;;;;;;20993489;28;20045;-58
2023/08/13 20:29:32;;;;;;;4.55;2.67;;;32.60;22.20;;;;;;20993992;28;20494;-57
2023/08/13 20:39:36;;;;;;;4.75;2.63;;;32.20;21.30;;;;;;20994448;28;20056;-58
2023/08/13 20:49:37;;;;;;;4.75;2.40;;;32.10;21.20;;;;;;20992793;28;20045;-57
2023/08/13 20:59:38;;;;;;;4.53;3.00;;;31.90;21.10;;;;;;20993764;28;20071;-57
2023/08/13 21:09:38;;;;;;;6.30;4.93;;;31.80;21.00;;;;;;20998094;28;20036;-58
2023/08/13 21:19:39;;;;;;;5.30;3.83;;;31.60;21.20;;;;;;21007224;28;20044;-58
2023/08/13 21:29:40;;;;;;;4.72;3.25;;;31.50;22.20;;;;;;21006312;28;20056;-58
2023/08/13 21:39:41;;;;;;;4.57;3.20;;;31.40;22.60;;;;;;21005169;28;20565;-58
2023/08/13 21:49:41;;;;;;;3.22;2.78;;;31.30;22.40;;;;;;21005948;28;20461;-58
2023/08/13 21:59:42;;;;;;;6.15;3.10;;;31.20;22.10;;;;;;21005298;28;20473;-60
2023/08/13 22:09:43;;;;;;;5.30;2.92;;;31.00;21.60;;;;;;21002979;28;20471;-59
2023/08/13 22:19:45;;;;;;;5.15;3.03;;;30.60;20.50;;;;;;21002365;28;20470;-58
2023/08/13 22:29:47;;;;;;;5.53;3.70;;;30.80;20.60;;;;;;21002044;28;20135;-59
2023/08/13 22:39:47;;;;;;;6.93;3.72;;;30.60;21.00;;;;;;21001865;28;20060;-58
2023/08/13 22:49:48;;;;;;;9.02;5.10;;;30.50;21.10;;;;;;21000779;28;20040;-59
2023/08/13 22:59:49;;;;;;;4.97;2.78;;;30.40;18.70;;;;;;20998919;28;20095;-57
2023/08/13 23:09:50;;;;;;;6.47;3.40;;;30.30;17.90;;;;;;20999066;28;20374;-58
2023/08/13 23:19:51;;;;;;;4.47;3.00;;;30.10;18.40;;;;;;20998821;28;20048;-57
2023/08/13 23:29:51;;;;;;;4.68;3.67;;;30.10;19.40;;;;;;20997205;28;20044;-59
2023/08/13 23:39:52;;;;;;;5.97;3.60;;;29.90;20.60;;;;;;20997349;28;20045;-58
2023/08/13 23:49:53;;;;;;;5.78;3.10;;;29.70;20.40;;;;;;20997057;28;20040;-58
2023/08/13 23:59:54;;;;;;;6.55;3.20;;;29.60;19.80;;;;;;20996726;28;20055;-58
